Terminal Aerodrome Forecast
Issued by NWS

Home | Current Version | Previous Version | Text Only | Print | Product List | Glossary On
Versions: 1 2 3 4 5 6 7 8 9 10 11 12 13 14 15 16 17 18 19 20 21 22 23 24 25 26 27 28 29 30 31 32 33 34 35 36 37 38 39 40 41 42 43 44 45
000
FTUS46 KEKA 272343
TAFACV
TAF
KACV 272343Z 2800/2824 31010KT P6SM FEW025 SCT035 SCT100
     FM280300 03003KT P6SM FEW035 SCT120 BKN250
     FM281000 00000KT 6SM BR SCT008 BKN250
     FM281500 06005KT P6SM SCT120 BKN250
     FM281800 22005KT P6SM SCT050 BKN120 BKN250=

USA.gov is the U.S. government's official web portal to all federal, state and local government web resources and services.